createdAt,value
2023-02-27T05:22:54.039Z,100695.19
2023-02-27T05:26:19.334Z,100697.53
2023-02-27T05:29:54.488Z,100700.28
2023-02-27T05:33:20.593Z,100704.53
2023-02-27T05:36:33.853Z,100711.63
2023-02-27T05:39:41.062Z,100715.13
2023-02-27T05:42:49.730Z,100723.50
2023-02-27T05:45:59.714Z,100716.50
2023-02-27T05:49:13.912Z,100734.53
2023-02-27T05:52:22.718Z,100734.63
2023-02-27T05:55:35.038Z,100734.41
2023-02-27T05:58:51.111Z,100729.34
2023-02-27T06:01:54.319Z,100742.06
2023-02-27T06:04:57.262Z,100740.34
2023-02-27T06:08:00.660Z,100751.91
2023-02-27T06:11:05.010Z,100759.03
2023-02-27T06:14:07.635Z,100770.03
2023-02-27T06:17:10.442Z,100767.81
2023-02-27T06:20:13.985Z,100767.28
2023-02-27T06:23:17.298Z,100769.81
2023-02-27T06:26:19.875Z,100782.03
2023-02-27T06:29:23.154Z,100781.41
2023-02-27T06:32:26.101Z,100792.53
2023-02-27T06:35:29.466Z,100798.44
2023-02-27T06:38:32.127Z,100813.44
2023-02-27T06:41:35.739Z,100819.78
2023-02-27T06:44:38.232Z,100825.94
2023-02-27T06:47:41.783Z,100834.19
2023-02-27T06:50:44.884Z,100835.69
2023-02-27T06:53:47.739Z,100835.69
2023-02-27T06:56:51.933Z,100852.41
2023-02-27T06:59:54.830Z,100849.19
2023-02-27T07:02:57.475Z,100858.56
2023-02-27T07:06:00.412Z,100845.88
2023-02-27T07:11:49.798Z,100864.41
2023-02-27T07:14:53.657Z,100864.41
2023-02-27T07:17:56.234Z,100857.78
2023-02-27T07:20:59.321Z,100861.03
2023-02-27T07:24:04.749Z,100852.19
2023-02-27T07:27:07.662Z,100861.34
2023-02-27T07:30:11.182Z,100858.41
2023-02-27T07:33:14.121Z,100862.88
2023-02-27T07:36:16.893Z,100876.75
2023-02-27T07:39:19.703Z,100866.63
2023-02-27T07:42:22.366Z,100877.75
2023-02-27T07:45:25.722Z,100881.75
2023-02-27T07:48:29.116Z,100885.44
2023-02-27T07:51:32.083Z,100887.53
2023-02-27T07:54:35.706Z,100888.31
2023-02-27T07:57:38.961Z,100881.25
2023-02-27T08:00:42.774Z,100893.03
2023-02-27T08:03:48.785Z,100894.50
2023-02-27T08:06:51.414Z,100888.69
2023-02-27T08:09:54.444Z,100895.25
2023-02-27T08:12:57.169Z,100903.41
2023-02-27T08:16:00.155Z,100903.56
2023-02-27T08:19:02.874Z,100901.41
2023-02-27T08:22:05.701Z,100904.06
2023-02-27T08:25:11.420Z,100907.59
2023-02-27T08:28:14.518Z,100915.75
2023-02-27T08:31:17.201Z,100915.41
2023-02-27T08:34:20.228Z,100921.37
2023-02-27T08:37:22.881Z,100924.31
2023-02-27T08:40:25.964Z,100932.19
2023-02-27T08:43:28.652Z,100934.91
2023-02-27T08:46:31.815Z,100942.63
2023-02-27T08:49:34.511Z,100953.44
2023-02-27T08:52:37.694Z,100949.34
2023-02-27T08:55:40.312Z,100953.47
2023-02-27T08:58:43.138Z,100962.28
2023-02-27T09:01:46.428Z,100965.78
2023-02-27T09:04:49.367Z,100962.78
2023-02-27T09:07:52.072Z,100966.19
2023-02-27T09:10:58.477Z,100972.09
2023-02-27T09:14:01.324Z,100966.97
2023-02-27T09:17:04.410Z,100967.03
2023-02-27T09:20:09.609Z,100966.22
2023-02-27T09:23:13.074Z,100961.97
2023-02-27T09:26:17.148Z,100966.00
2023-02-27T09:29:21.385Z,100966.16
2023-02-27T09:32:24.284Z,100963.88
2023-02-27T09:35:28.156Z,100976.91
2023-02-27T09:38:32.669Z,100980.19
2023-02-27T09:41:39.333Z,100975.91
2023-02-27T09:44:47.702Z,100972.97
2023-02-27T09:48:00.017Z,100978.41
2023-02-27T09:51:03.411Z,100976.09
2023-02-27T09:54:06.438Z,100970.84
2023-02-27T09:57:16.033Z,100969.00
2023-02-27T10:00:38.289Z,100976.16
2023-02-27T10:03:49.973Z,100980.72
2023-02-27T10:07:03.471Z,100981.84
2023-02-27T10:10:22.707Z,100982.28
2023-02-27T10:13:53.983Z,100988.28
2023-02-27T10:16:59.072Z,100987.16
2023-02-27T10:20:06.759Z,100978.59
2023-02-27T10:23:18.716Z,100980.34
2023-02-27T10:26:33.231Z,100978.31
2023-02-27T10:29:41.643Z,100992.97
2023-02-27T10:32:45.743Z,100979.78
2023-02-27T10:35:50.695Z,100976.16
2023-02-27T10:38:58.812Z,100979.34
2023-02-27T10:42:07.428Z,100982.53
2023-02-27T10:45:15.863Z,100982.34
2023-02-27T10:48:19.587Z,100982.75
2023-02-27T10:51:29.186Z,100973.50
2023-02-27T10:54:32.416Z,100981.06
2023-02-27T10:57:42.986Z,100971.53
2023-02-27T11:00:58.092Z,100974.41
2023-02-27T11:04:00.882Z,100975.38
2023-02-27T11:07:11.764Z,100977.53
2023-02-27T11:10:14.485Z,100980.44
2023-02-27T11:13:23.005Z,100968.25
2023-02-27T11:16:25.723Z,100977.47
2023-02-27T11:19:35.537Z,100973.22
2023-02-27T11:22:38.297Z,100984.66
2023-02-27T11:25:41.637Z,100980.13
2023-02-27T11:28:44.296Z,100981.16
2023-02-27T11:31:56.563Z,100983.38
2023-02-27T11:34:59.399Z,100984.06
2023-02-27T11:38:04.715Z,100986.94
2023-02-27T11:41:09.074Z,100984.78
2023-02-27T11:44:17.628Z,100980.13
2023-02-27T11:47:38.636Z,100989.97
2023-02-27T11:51:06.924Z,100987.41
2023-02-27T11:54:28.834Z,100982.37
2023-02-27T11:57:41.447Z,100979.56
2023-02-27T12:01:03.500Z,100980.13
2023-02-27T12:04:14.643Z,100976.50
2023-02-27T12:07:21.940Z,100973.63
2023-02-27T12:10:29.843Z,100979.41
2023-02-27T12:13:38.459Z,100968.03
2023-02-27T12:17:07.263Z,100973.06
2023-02-27T12:20:20.628Z,100975.41
2023-02-27T12:23:27.831Z,100985.44
2023-02-27T12:26:37.494Z,100981.47
2023-02-27T12:29:47.977Z,100975.16
2023-02-27T12:33:13.336Z,100983.22
2023-02-27T12:36:16.782Z,100987.22
2023-02-27T12:39:24.157Z,100984.31
2023-02-27T12:42:30.242Z,100985.06
2023-02-27T12:46:00.383Z,100989.44
2023-02-27T12:49:21.386Z,100994.72
2023-02-27T12:52:23.983Z,100995.53
2023-02-27T12:55:30.957Z,100998.72
2023-02-27T12:58:45.979Z,101003.72
2023-02-27T13:01:58.556Z,101004.38
2023-02-27T13:05:13.988Z,101012.69
2023-02-27T13:08:32.769Z,101005.00
2023-02-27T13:11:45.437Z,101010.72
2023-02-27T13:15:00.806Z,101011.62
2023-02-27T13:18:45.470Z,101015.41
2023-02-27T13:21:55.355Z,101012.00
2023-02-27T13:25:02.016Z,101005.72
2023-02-27T13:28:11.278Z,101009.59
2023-02-27T13:31:27.124Z,101007.34
2023-02-27T13:34:43.207Z,101013.69
2023-02-27T13:38:13.812Z,101009.59
2023-02-27T13:41:27.976Z,101015.50
2023-02-27T13:44:40.965Z,101021.44
2023-02-27T13:47:52.638Z,101017.94
2023-02-27T13:50:55.332Z,101016.34
2023-02-27T13:54:13.737Z,101017.06
2023-02-27T13:57:21.550Z,101016.50
2023-02-27T14:00:28.243Z,101019.31
2023-02-27T14:03:32.239Z,101018.47
2023-02-27T14:06:44.548Z,101022.09
2023-02-27T14:09:51.724Z,101011.50
2023-02-27T14:12:57.470Z,101014.44
2023-02-27T14:16:03.244Z,101015.28
2023-02-27T14:19:24.230Z,101015.47
2023-02-27T14:22:30.095Z,101006.00
2023-02-27T14:25:40.073Z,101016.19
2023-02-27T14:28:55.650Z,101015.47
2023-02-27T14:32:08.867Z,101018.75
2023-02-27T14:35:16.031Z,101019.97
2023-02-27T14:38:20.599Z,101014.19
2023-02-27T14:41:31.760Z,101011.72
2023-02-27T14:44:43.570Z,101018.06
2023-02-27T14:47:47.320Z,101013.06
2023-02-27T14:50:53.755Z,101021.06
2023-02-27T14:54:18.340Z,101030.44
2023-02-27T14:57:26.772Z,101030.97
2023-02-27T15:00:50.666Z,101028.62
2023-02-27T15:04:00.730Z,101032.31
2023-02-27T15:07:04.191Z,101042.09
2023-02-27T15:10:09.749Z,101040.84
2023-02-27T15:13:22.031Z,101045.62
2023-02-27T15:16:24.531Z,101038.16
2023-02-27T15:19:30.178Z,101046.09
2023-02-27T15:22:39.723Z,101068.53
2023-02-27T15:25:43.418Z,101069.62
2023-02-27T15:28:49.485Z,101071.09
2023-02-27T15:31:53.230Z,101080.66
2023-02-27T15:34:58.138Z,101075.94
2023-02-27T15:38:02.592Z,101086.47
2023-02-27T15:41:05.484Z,101093.50
2023-02-27T15:44:10.714Z,101090.47
2023-02-27T15:47:18.625Z,101097.25
2023-02-27T15:50:26.352Z,101103.75
2023-02-27T15:53:30.834Z,101103.38
2023-02-27T15:56:37.089Z,101114.22
2023-02-27T15:59:43.085Z,101120.53
2023-02-27T16:02:50.314Z,101118.81
2023-02-27T16:05:53.567Z,101118.97
2023-02-27T16:09:17.733Z,101115.81
2023-02-27T16:12:36.818Z,101126.06
2023-02-27T16:15:40.280Z,101126.75
2023-02-27T16:18:47.246Z,101129.94
2023-02-27T16:22:22.767Z,101140.81
2023-02-27T16:25:25.707Z,101152.13
2023-02-27T16:28:41.881Z,101145.66
2023-02-27T16:31:51.326Z,101156.63
2023-02-27T16:35:15.783Z,101169.50
2023-02-27T16:38:23.705Z,101173.34
2023-02-27T16:41:27.975Z,101176.75
2023-02-27T16:44:31.275Z,101187.47
2023-02-27T16:47:34.087Z,101195.81
2023-02-27T16:50:42.990Z,101196.75
2023-02-27T16:53:49.150Z,101205.56
2023-02-27T16:56:52.100Z,101211.22
2023-02-27T16:59:54.714Z,101208.97
